createdAt,value
2017-10-07T00:00:24.004Z,4.40
2017-10-07T00:02:51.626Z,4.37
2017-10-07T00:05:19.177Z,4.57
2017-10-07T00:07:46.713Z,4.27
2017-10-07T00:10:14.301Z,4.60
2017-10-07T00:12:41.857Z,4.20
2017-10-07T00:15:09.433Z,4.60
2017-10-07T00:17:36.969Z,4.90
2017-10-07T00:20:04.533Z,5.10
2017-10-07T00:22:32.094Z,5.20
2017-10-07T00:24:59.689Z,5.03
2017-10-07T00:27:27.247Z,4.70
2017-10-07T00:29:54.865Z,4.60
2017-10-07T00:32:22.422Z,4.93
2017-10-07T00:34:49.958Z,4.30
2017-10-07T00:37:17.914Z,4.50
2017-10-07T00:39:45.462Z,4.63
2017-10-07T00:42:13.063Z,4.30
2017-10-07T00:44:40.595Z,3.97
2017-10-07T00:47:08.260Z,4.47
2017-10-07T00:49:36.500Z,4.07
2017-10-07T00:52:04.057Z,4.30
2017-10-07T00:54:31.678Z,4.37
2017-10-07T00:56:59.230Z,4.33
2017-10-07T00:59:26.765Z,3.80
2017-10-07T01:01:55.392Z,3.70
2017-10-07T01:04:22.933Z,3.87
2017-10-07T01:06:50.492Z,4.87
2017-10-07T01:09:18.091Z,4.40
2017-10-07T01:11:46.043Z,4.00
2017-10-07T01:14:14.352Z,3.97
2017-10-07T01:16:41.954Z,4.47
2017-10-07T01:19:09.489Z,4.17
2017-10-07T01:21:37.111Z,3.83
2017-10-07T01:24:05.410Z,3.97
2017-10-07T01:26:33.764Z,3.83
2017-10-07T01:29:01.339Z,3.90
2017-10-07T01:31:28.880Z,4.03
2017-10-07T01:33:56.465Z,3.50
2017-10-07T01:36:24.018Z,3.70
2017-10-07T01:38:51.613Z,3.67
2017-10-07T01:41:19.148Z,3.90
2017-10-07T01:43:46.701Z,3.43
2017-10-07T01:46:14.285Z,4.30
2017-10-07T01:48:42.611Z,3.60
2017-10-07T01:51:10.245Z,4.23
2017-10-07T01:53:37.781Z,4.90
2017-10-07T01:56:05.333Z,4.50
2017-10-07T01:58:32.965Z,4.60
2017-10-07T02:01:00.499Z,4.00
2017-10-07T02:03:28.877Z,3.80
2017-10-07T02:05:56.441Z,3.33
2017-10-07T02:08:24.009Z,4.10
2017-10-07T02:10:52.340Z,3.40
2017-10-07T02:13:19.882Z,4.03
2017-10-07T02:15:47.469Z,3.27
2017-10-07T02:18:15.002Z,4.50
2017-10-07T02:20:42.633Z,5.10
2017-10-07T02:23:10.933Z,4.20
2017-10-07T02:25:38.469Z,4.70
2017-10-07T02:28:06.054Z,4.77
2017-10-07T02:30:34.406Z,4.90
2017-10-07T02:33:01.996Z,4.00
2017-10-07T02:35:29.547Z,4.10
2017-10-07T02:37:57.150Z,3.50
2017-10-07T02:40:24.708Z,4.10
2017-10-07T02:42:52.266Z,4.40
2017-10-07T02:45:19.858Z,4.10
2017-10-07T02:47:47.410Z,4.27
2017-10-07T02:50:14.997Z,4.63
2017-10-07T02:52:42.530Z,4.53
2017-10-07T02:55:10.073Z,4.07
2017-10-07T02:57:37.746Z,4.30
2017-10-07T03:00:05.289Z,4.33
2017-10-07T03:02:32.885Z,4.97
2017-10-07T03:05:00.426Z,4.80
2017-10-07T03:07:28.073Z,5.53
2017-10-07T03:09:55.669Z,5.77
2017-10-07T03:12:23.205Z,5.73
2017-10-07T03:14:50.789Z,7.00
2017-10-07T03:17:18.342Z,8.07
2017-10-07T03:19:46.357Z,8.00
2017-10-07T03:22:13.916Z,7.50
2017-10-07T03:24:41.473Z,7.50
2017-10-07T03:27:09.136Z,6.70
2017-10-07T03:29:37.408Z,10.00
2017-10-07T03:32:04.967Z,12.23
2017-10-07T03:34:32.589Z,18.20
2017-10-07T03:37:00.144Z,19.50
2017-10-07T03:39:27.787Z,19.97
2017-10-07T03:41:55.337Z,20.70
2017-10-07T03:44:22.881Z,19.00
2017-10-07T03:46:50.861Z,15.57
2017-10-07T03:49:18.409Z,16.67
2017-10-07T03:51:46.061Z,17.87
2017-10-07T03:54:13.607Z,19.77
2017-10-07T03:56:41.164Z,25.70
2017-10-07T03:59:08.745Z,23.20
2017-10-07T04:01:36.293Z,24.40
2017-10-07T04:04:03.897Z,28.93
2017-10-07T04:06:31.450Z,18.93
2017-10-07T04:08:59.018Z,18.20
2017-10-07T04:11:26.616Z,15.30
2017-10-07T04:13:54.194Z,11.57
2017-10-07T04:16:21.793Z,9.83
2017-10-07T04:18:49.353Z,9.63
2017-10-07T04:21:16.900Z,9.30
2017-10-07T04:23:44.509Z,8.40
2017-10-07T04:26:12.066Z,8.70
2017-10-07T04:28:39.682Z,8.23
2017-10-07T04:31:07.266Z,8.60
2017-10-07T04:33:35.664Z,8.30
2017-10-07T04:36:03.324Z,7.83
2017-10-07T04:38:30.882Z,9.47
2017-10-07T04:40:58.463Z,8.90
2017-10-07T04:43:26.370Z,8.50
2017-10-07T04:45:53.922Z,8.30
2017-10-07T04:48:21.481Z,8.57
2017-10-07T04:50:49.038Z,7.77
2017-10-07T04:53:17.393Z,8.30
2017-10-07T04:55:45.956Z,8.50
2017-10-07T04:58:13.499Z,8.60
2017-10-07T05:00:41.161Z,7.97
2017-10-07T05:03:09.716Z,7.73
2017-10-07T05:05:37.546Z,8.00
2017-10-07T05:08:05.123Z,10.97
2017-10-07T05:10:33.096Z,10.57
2017-10-07T05:13:01.466Z,12.07
2017-10-07T05:15:29.478Z,12.07
2017-10-07T05:17:57.372Z,10.67
2017-10-07T05:20:25.043Z,9.93
2017-10-07T05:22:52.735Z,10.33
2017-10-07T05:25:20.970Z,10.13
2017-10-07T05:27:48.557Z,11.07
2017-10-07T05:30:17.406Z,9.10
2017-10-07T05:32:44.984Z,9.43
2017-10-07T05:35:12.663Z,8.27
2017-10-07T05:37:40.982Z,7.67
2017-10-07T05:40:08.544Z,8.37
2017-10-07T05:42:36.121Z,7.80
2017-10-07T05:45:03.658Z,8.40
2017-10-07T05:47:31.250Z,6.63
2017-10-07T05:49:58.801Z,6.73
2017-10-07T05:52:26.777Z,6.40
2017-10-07T05:54:54.403Z,5.77
2017-10-07T05:57:21.979Z,6.30
2017-10-07T05:59:49.574Z,6.13
2017-10-07T06:02:17.139Z,6.17
2017-10-07T06:04:44.762Z,6.53
2017-10-07T06:07:12.397Z,6.70
2017-10-07T06:09:39.956Z,6.67
2017-10-07T06:12:07.543Z,5.90
2017-10-07T06:14:35.102Z,6.30
2017-10-07T06:17:03.040Z,6.33
2017-10-07T06:19:30.620Z,6.70
2017-10-07T06:21:58.170Z,7.23
2017-10-07T06:24:26.148Z,7.40
2017-10-07T06:26:54.007Z,6.20
2017-10-07T06:29:21.586Z,6.73
2017-10-07T06:31:49.211Z,6.57
2017-10-07T06:34:16.896Z,6.50
2017-10-07T06:36:44.532Z,6.50
2017-10-07T06:39:12.091Z,6.50
2017-10-07T06:41:39.682Z,7.17
2017-10-07T06:44:07.235Z,7.20
2017-10-07T06:46:34.842Z,6.90
2017-10-07T06:49:03.168Z,6.90
2017-10-07T06:51:30.803Z,7.80
2017-10-07T06:53:59.135Z,7.27
2017-10-07T06:56:26.695Z,8.17
2017-10-07T06:58:54.296Z,8.30
2017-10-07T07:01:22.278Z,8.47
2017-10-07T07:03:50.262Z,7.90
2017-10-07T07:06:17.890Z,8.57
2017-10-07T07:08:45.551Z,8.43
2017-10-07T07:11:13.134Z,8.60
2017-10-07T07:13:40.690Z,8.90
2017-10-07T07:16:08.294Z,9.50
2017-10-07T07:18:36.254Z,8.30
2017-10-07T07:21:03.856Z,9.07
2017-10-07T07:23:31.413Z,9.00
2017-10-07T07:25:59.234Z,9.10
2017-10-07T07:28:26.837Z,8.83
2017-10-07T07:30:55.178Z,12.30
2017-10-07T07:33:23.642Z,14.73
2017-10-07T07:35:51.931Z,8.67
2017-10-07T07:38:19.494Z,9.33
2017-10-07T07:40:47.102Z,11.10
2017-10-07T07:43:16.179Z,9.30
2017-10-07T07:45:43.795Z,9.83
2017-10-07T08:02:49.938Z,10.80
2017-10-07T08:05:19.089Z,9.57
2017-10-07T08:07:47.781Z,10.30
2017-10-07T08:10:15.333Z,10.23
2017-10-07T08:12:43.347Z,9.80
2017-10-07T08:15:11.279Z,9.23
2017-10-07T08:17:38.870Z,9.90
2017-10-07T08:20:07.183Z,10.40
2017-10-07T08:22:34.804Z,9.13
2017-10-07T08:25:03.115Z,8.57
2017-10-07T08:27:32.006Z,8.87
2017-10-07T08:30:01.121Z,8.33
2017-10-07T08:32:28.866Z,7.97
2017-10-07T08:34:57.930Z,8.07
2017-10-07T08:37:26.929Z,8.40
2017-10-07T08:39:56.025Z,8.27
2017-10-07T08:42:25.179Z,7.90
2017-10-07T08:44:54.885Z,8.30
2017-10-07T08:47:23.101Z,7.63
2017-10-07T08:49:52.340Z,7.80
2017-10-07T08:52:20.648Z,7.40
2017-10-07T08:54:48.365Z,7.07
2017-10-07T08:57:16.016Z,7.17
2017-10-07T08:59:45.340Z,5.67
2017-10-07T09:02:15.518Z,5.63
2017-10-07T09:04:43.952Z,5.30
2017-10-07T09:07:12.836Z,5.40
2017-10-07T09:09:40.428Z,5.93
2017-10-07T09:12:09.322Z,5.30
2017-10-07T09:14:38.019Z,5.10
2017-10-07T09:17:05.622Z,5.67
2017-10-07T09:19:34.550Z,5.93
2017-10-07T09:22:03.326Z,5.40
2017-10-07T09:27:17.786Z,5.50
2017-10-07T09:29:46.103Z,7.20
2017-10-07T09:32:14.257Z,5.67
2017-10-07T09:34:41.888Z,5.87
2017-10-07T09:37:09.476Z,5.13
2017-10-07T09:39:37.132Z,4.87
2017-10-07T09:42:04.725Z,5.07
2017-10-07T09:44:32.309Z,5.23
2017-10-07T09:47:00.248Z,5.30
2017-10-07T09:49:27.822Z,5.57
2017-10-07T09:51:58.398Z,5.30
2017-10-07T09:54:26.013Z,5.23
2017-10-07T09:56:53.562Z,6.13
2017-10-07T09:59:21.101Z,6.17
2017-10-07T10:01:49.666Z,6.23
2017-10-07T10:04:17.238Z,6.10
2017-10-07T10:06:45.848Z,6.10
2017-10-07T10:09:13.406Z,5.20
2017-10-07T10:11:41.403Z,5.60
2017-10-07T10:14:08.949Z,5.03
2017-10-07T10:16:37.325Z,5.70
2017-10-07T10:19:05.644Z,4.53
2017-10-07T10:21:33.182Z,5.17
2017-10-07T10:24:00.761Z,5.07
2017-10-07T10:26:28.753Z,5.83
2017-10-07T10:28:56.729Z,4.73
2017-10-07T10:31:25.629Z,5.10
2017-10-07T10:33:56.877Z,4.67
2017-10-07T10:36:25.219Z,4.77
2017-10-07T10:38:52.841Z,5.40
2017-10-07T10:41:20.442Z,5.30
2017-10-07T10:43:48.741Z,5.60
2017-10-07T10:46:16.349Z,5.33
2017-10-07T10:48:44.286Z,5.63
2017-10-07T10:51:12.599Z,5.30
2017-10-07T10:53:40.182Z,5.00
2017-10-07T10:56:07.729Z,5.50
2017-10-07T10:58:36.141Z,5.77
2017-10-07T11:01:04.476Z,6.30
2017-10-07T11:03:32.546Z,6.20
2017-10-07T11:06:00.129Z,5.10
2017-10-07T11:08:27.673Z,4.70
2017-10-07T11:10:55.671Z,5.80
2017-10-07T11:13:24.350Z,5.60
2017-10-07T11:15:51.901Z,6.00
2017-10-07T11:18:21.320Z,5.77
2017-10-07T11:20:49.733Z,5.90
2017-10-07T11:23:18.950Z,5.30
2017-10-07T11:25:48.039Z,5.77
2017-10-07T11:28:16.156Z,5.67
2017-10-07T11:30:43.829Z,5.20
2017-10-07T11:33:12.878Z,5.40
2017-10-07T11:35:41.658Z,4.90
2017-10-07T11:38:10.381Z,4.50
2017-10-07T11:40:37.922Z,4.53
2017-10-07T11:43:06.384Z,3.73
2017-10-07T11:45:33.920Z,4.43
2017-10-07T11:48:02.322Z,3.93
2017-10-07T11:50:30.713Z,4.03
2017-10-07T11:52:58.446Z,3.70
2017-10-07T11:55:26.478Z,3.77
2017-10-07T11:57:54.566Z,3.63
2017-10-07T12:00:22.955Z,3.13
2017-10-07T12:02:51.403Z,3.10
2017-10-07T12:05:19.602Z,3.20
2017-10-07T12:07:47.319Z,2.90
2017-10-07T12:10:15.365Z,3.30
2017-10-07T12:12:43.788Z,2.93
2017-10-07T12:15:12.794Z,2.97
2017-10-07T12:17:41.269Z,2.77
2017-10-07T12:20:09.742Z,3.40
2017-10-07T12:22:38.203Z,3.80
2017-10-07T12:25:05.897Z,3.17
2017-10-07T12:27:34.351Z,3.10
2017-10-07T12:30:03.382Z,3.13
2017-10-07T12:32:31.864Z,3.60
2017-10-07T12:35:00.773Z,3.17
2017-10-07T12:37:30.899Z,2.70
2017-10-07T12:39:58.545Z,3.23
2017-10-07T12:42:26.256Z,2.80
2017-10-07T12:44:54.275Z,2.93
2017-10-07T12:47:23.128Z,3.13
2017-10-07T12:49:51.542Z,3.13
2017-10-07T12:52:19.102Z,3.00
2017-10-07T12:54:47.459Z,3.30
2017-10-07T12:57:15.775Z,3.03
2017-10-07T12:59:43.790Z,3.23
2017-10-07T13:02:14.189Z,3.50
2017-10-07T13:04:42.850Z,2.77
2017-10-07T13:07:10.480Z,3.53
2017-10-07T13:09:39.161Z,3.07
2017-10-07T13:12:06.795Z,3.37
2017-10-07T13:14:34.734Z,3.30
2017-10-07T13:17:02.289Z,3.27
2017-10-07T13:19:30.303Z,3.10
2017-10-07T13:21:58.617Z,3.10
2017-10-07T13:24:27.445Z,3.10
2017-10-07T13:26:55.551Z,2.70
2017-10-07T13:29:23.492Z,2.63
2017-10-07T13:31:51.051Z,2.20
2017-10-07T13:34:18.669Z,2.30
2017-10-07T13:36:46.283Z,2.80
2017-10-07T13:39:14.612Z,2.60
2017-10-07T13:41:42.231Z,3.07
2017-10-07T13:44:10.921Z,1.87
2017-10-07T13:46:39.238Z,2.10
2017-10-07T13:49:07.248Z,2.00
2017-10-07T13:51:35.564Z,1.83
2017-10-07T13:54:07.674Z,2.10
2017-10-07T13:56:35.622Z,2.03
2017-10-07T13:59:03.171Z,1.70
2017-10-07T14:01:30.771Z,2.17
2017-10-07T14:03:58.829Z,2.10
2017-10-07T14:06:26.770Z,1.90
2017-10-07T14:08:54.371Z,1.77
2017-10-07T14:11:22.684Z,2.00
2017-10-07T14:13:51.001Z,1.97
2017-10-07T14:16:18.604Z,1.80
2017-10-07T14:18:46.158Z,2.00
2017-10-07T14:21:14.467Z,2.20
2017-10-07T14:23:42.071Z,1.50
2017-10-07T14:26:09.613Z,1.70
2017-10-07T14:28:37.925Z,1.93
2017-10-07T14:31:05.546Z,1.93
2017-10-07T14:33:33.864Z,1.67
2017-10-07T14:36:01.426Z,2.13
2017-10-07T14:38:29.032Z,1.93
2017-10-07T14:40:56.690Z,2.13
2017-10-07T14:43:25.006Z,1.60
2017-10-07T14:45:53.003Z,1.60
2017-10-07T14:48:20.551Z,1.43
2017-10-07T14:50:48.948Z,1.80
2017-10-07T14:53:16.538Z,1.63
2017-10-07T14:55:44.159Z,1.60
2017-10-07T14:58:11.706Z,1.60
2017-10-07T15:00:39.927Z,1.70
2017-10-07T15:03:07.478Z,1.60
2017-10-07T15:05:35.997Z,1.40
2017-10-07T15:08:04.347Z,1.90
2017-10-07T15:10:32.656Z,1.70
2017-10-07T15:13:02.008Z,1.80
2017-10-07T15:15:29.598Z,1.80
2017-10-07T15:17:57.176Z,2.10
2017-10-07T15:20:25.491Z,1.80
2017-10-07T15:22:53.492Z,2.20
2017-10-07T15:25:21.435Z,2.63
2017-10-07T15:27:49.272Z,1.80
2017-10-07T15:30:16.836Z,2.30
2017-10-07T15:32:59.192Z,2.03
2017-10-07T15:35:26.734Z,2.00
2017-10-07T15:37:55.057Z,3.80
2017-10-07T15:40:23.411Z,2.50
2017-10-07T15:42:50.952Z,2.10
2017-10-07T15:45:18.530Z,2.37
2017-10-07T15:47:46.855Z,2.10
2017-10-07T15:50:14.455Z,2.40
2017-10-07T15:52:42.030Z,2.20
2017-10-07T15:55:10.347Z,2.10
2017-10-07T15:57:37.947Z,2.73
2017-10-07T16:00:06.261Z,2.30
2017-10-07T16:02:33.840Z,2.63
2017-10-07T16:05:01.391Z,2.30
2017-10-07T16:07:29.002Z,2.43
2017-10-07T16:09:56.945Z,2.70
2017-10-07T16:12:24.493Z,2.20
2017-10-07T16:14:52.084Z,2.17
2017-10-07T16:17:20.038Z,2.20
2017-10-07T16:19:48.057Z,2.50
2017-10-07T16:22:16.984Z,2.40
2017-10-07T16:24:44.926Z,2.37
2017-10-07T16:27:14.987Z,2.50
2017-10-07T16:29:43.916Z,2.30
2017-10-07T16:32:12.501Z,2.50
2017-10-07T16:34:40.829Z,2.60
2017-10-07T16:37:09.139Z,2.20
2017-10-07T16:39:37.480Z,2.70
2017-10-07T16:42:05.798Z,2.07
2017-10-07T16:44:34.165Z,3.00
2017-10-07T16:47:02.479Z,3.30
2017-10-07T16:49:30.049Z,3.60
2017-10-07T16:51:59.097Z,3.20
2017-10-07T16:54:27.063Z,3.17
2017-10-07T16:56:55.025Z,2.80
2017-10-07T16:59:22.638Z,2.83
2017-10-07T17:01:50.187Z,3.30
2017-10-07T17:04:17.740Z,2.90
2017-10-07T17:06:45.327Z,3.03
2017-10-07T17:09:13.277Z,4.93
2017-10-07T17:11:40.871Z,4.27
2017-10-07T17:14:09.214Z,6.60
2017-10-07T17:16:36.762Z,5.90
2017-10-07T17:19:05.322Z,5.30
2017-10-07T17:21:32.906Z,4.63
2017-10-07T17:24:00.903Z,4.73
2017-10-07T17:26:28.446Z,3.20
2017-10-07T17:28:57.341Z,3.37
2017-10-07T17:31:24.963Z,3.00
2017-10-07T17:33:52.508Z,3.37
2017-10-07T17:36:20.902Z,3.10
2017-10-07T17:38:48.454Z,3.17
2017-10-07T17:41:16.041Z,3.50
2017-10-07T17:43:43.597Z,3.37
2017-10-07T17:46:11.144Z,6.70
2017-10-07T17:48:38.727Z,3.50
2017-10-07T17:51:06.269Z,3.60
2017-10-07T17:53:33.854Z,3.50
2017-10-07T17:56:01.795Z,3.83
2017-10-07T17:58:30.178Z,4.50
2017-10-07T18:00:58.655Z,4.67
2017-10-07T18:03:26.998Z,4.43
2017-10-07T18:05:54.964Z,4.33
2017-10-07T18:08:23.302Z,4.33
2017-10-07T18:10:51.270Z,4.10
2017-10-07T18:13:18.870Z,5.03
2017-10-07T18:15:47.186Z,4.23
2017-10-07T18:18:15.557Z,4.33
2017-10-07T18:20:43.355Z,4.30
2017-10-07T18:23:11.716Z,4.50
2017-10-07T18:25:39.275Z,3.70
2017-10-07T18:28:06.858Z,4.63
2017-10-07T18:30:34.410Z,4.40
2017-10-07T18:33:03.146Z,4.33
2017-10-07T18:35:30.697Z,5.20
2017-10-07T18:38:09.205Z,5.10
2017-10-07T18:40:36.757Z,5.43
2017-10-07T18:43:05.885Z,5.33
2017-10-07T18:45:34.226Z,4.90
2017-10-07T18:48:02.912Z,5.13
2017-10-07T18:50:31.253Z,5.00
2017-10-07T18:52:58.807Z,5.10
2017-10-07T18:55:26.803Z,5.00
2017-10-07T18:57:55.488Z,4.23
2017-10-07T19:00:23.842Z,5.07
2017-10-07T19:02:51.391Z,5.07
2017-10-07T19:05:19.439Z,5.30
2017-10-07T19:07:46.984Z,5.50
2017-10-07T19:10:14.562Z,5.40
2017-10-07T19:12:43.449Z,5.47
2017-10-07T19:15:11.074Z,7.10
2017-10-07T19:17:39.979Z,7.73
2017-10-07T19:20:07.931Z,7.93
2017-10-07T19:22:35.903Z,7.30
2017-10-07T19:25:03.532Z,5.07
2017-10-07T19:27:31.134Z,5.03
2017-10-07T19:29:58.682Z,4.63
2017-10-07T19:32:27.582Z,5.33
2017-10-07T19:34:55.170Z,4.70
2017-10-07T19:37:22.731Z,4.03
2017-10-07T19:39:50.326Z,4.77
2017-10-07T19:42:19.402Z,5.67
2017-10-07T19:44:46.995Z,4.83
2017-10-07T19:47:14.950Z,5.33
2017-10-07T19:49:43.298Z,5.40
2017-10-07T19:52:11.619Z,4.83
2017-10-07T19:54:45.189Z,5.30
2017-10-07T19:57:13.146Z,4.67
2017-10-07T19:59:42.042Z,5.00
2017-10-07T20:02:09.621Z,5.87
2017-10-07T20:04:37.934Z,5.00
2017-10-07T20:07:06.792Z,4.93
2017-10-07T20:09:34.365Z,4.37
2017-10-07T20:12:02.020Z,4.07
2017-10-07T20:14:29.956Z,3.10
2017-10-07T20:16:57.531Z,3.17
2017-10-07T20:19:25.846Z,2.80
2017-10-07T20:21:53.438Z,3.20
2017-10-07T20:24:21.745Z,2.50
2017-10-07T20:27:13.221Z,2.70
2017-10-07T20:29:41.558Z,2.70
2017-10-07T20:32:09.149Z,2.87
2017-10-07T20:34:37.092Z,2.60
2017-10-07T20:37:04.689Z,2.70
2017-10-07T20:39:32.237Z,3.00
2017-10-07T20:41:59.790Z,2.53
2017-10-07T20:44:28.979Z,2.87
2017-10-07T20:46:57.669Z,2.50
2017-10-07T20:49:25.298Z,2.60
2017-10-07T20:51:52.842Z,2.80
2017-10-07T20:54:21.170Z,2.90
2017-10-07T20:56:49.837Z,2.73
2017-10-07T20:59:17.813Z,3.50
2017-10-07T21:01:45.424Z,3.07
2017-10-07T21:04:13.768Z,2.43
2017-10-07T21:06:42.064Z,2.90
2017-10-07T21:09:10.037Z,3.20
2017-10-07T21:11:38.362Z,2.70
2017-10-07T21:14:05.962Z,2.50
2017-10-07T21:16:35.013Z,2.60
2017-10-07T21:19:02.606Z,2.77
2017-10-07T21:21:30.158Z,3.03
2017-10-07T21:24:00.510Z,2.50
2017-10-07T21:26:29.286Z,2.73
2017-10-07T21:28:58.303Z,2.80
2017-10-07T21:31:27.385Z,2.80
2017-10-07T21:33:56.337Z,2.90
2017-10-07T21:36:24.282Z,2.60
2017-10-07T21:38:52.656Z,2.90
2017-10-07T21:41:21.352Z,2.60
2017-10-07T21:43:49.662Z,3.40
2017-10-07T21:46:18.609Z,3.50
2017-10-07T21:48:46.148Z,2.80
2017-10-07T21:51:14.563Z,2.70
2017-10-07T21:53:42.953Z,2.47
2017-10-07T21:56:11.263Z,2.50
2017-10-07T21:58:39.569Z,2.53
2017-10-07T22:01:07.914Z,2.40
2017-10-07T22:03:36.609Z,2.90
2017-10-07T22:06:04.598Z,2.80
2017-10-07T22:08:33.276Z,2.50
2017-10-07T22:11:01.607Z,2.80
2017-10-07T22:13:30.763Z,2.57
2017-10-07T22:15:59.499Z,2.67
2017-10-07T22:18:27.454Z,2.73
2017-10-07T22:20:55.041Z,2.80
2017-10-07T22:23:24.094Z,3.07
2017-10-07T22:25:51.677Z,3.23
2017-10-07T22:28:19.985Z,2.67
2017-10-07T22:30:48.337Z,2.67
2017-10-07T22:33:16.652Z,3.30
2017-10-07T22:35:45.560Z,3.20
2017-10-07T22:38:13.512Z,3.00
2017-10-07T22:40:41.121Z,3.20
2017-10-07T22:43:08.663Z,3.03
2017-10-07T22:45:36.213Z,3.23
2017-10-07T22:48:03.806Z,3.30
2017-10-07T22:50:32.503Z,3.17
2017-10-07T22:53:01.393Z,3.17
2017-10-07T22:55:29.579Z,2.90
2017-10-07T22:57:57.526Z,3.70
2017-10-07T23:00:25.875Z,3.40
2017-10-07T23:02:53.481Z,3.67
2017-10-07T23:05:21.422Z,3.50
2017-10-07T23:07:49.730Z,3.63
2017-10-07T23:10:17.321Z,3.37
2017-10-07T23:12:45.264Z,3.30
2017-10-07T23:15:13.201Z,3.77
2017-10-07T23:17:42.323Z,3.50
2017-10-07T23:20:09.889Z,3.97
2017-10-07T23:22:38.201Z,3.30
2017-10-07T23:25:07.309Z,3.20
2017-10-07T23:27:35.620Z,3.73
2017-10-07T23:30:04.302Z,3.10
2017-10-07T23:32:33.249Z,2.90
2017-10-07T23:35:00.795Z,2.50
2017-10-07T23:37:28.340Z,9.43
2017-10-07T23:39:56.702Z,2.70
2017-10-07T23:42:24.247Z,2.43
2017-10-07T23:44:52.563Z,2.30
2017-10-07T23:47:20.562Z,2.00
2017-10-07T23:49:49.246Z,1.50
2017-10-07T23:52:17.564Z,1.60
2017-10-07T23:54:45.940Z,1.40
2017-10-07T23:57:14.320Z,1.47
2017-10-07T23:59:43.380Z,1.50
